Time;durP1;ratioP1;P1;durP2;ratioP2;P2;SDS_P1;SDS_P2;PMS_P1;PMS_P2;Temp;Humidity;BMP_temperature;BMP_pressure;BME280_temperature;BME280_humidity;BME280_pressure;Samples;Min_cycle;Max_cycle;Signal;HPM_P1;HPM_P2
2023/10/15 00:00:16;;;;;;;1.25;1.10;;;;;;;;;;4957786;29;20208;-91
2023/10/15 00:02:46;;;;;;;2.00;1.45;;;;;;;;;;4957871;29;20316;-91
2023/10/15 00:05:17;;;;;;;2.67;0.95;;;;;;;;;;4958044;28;20229;-91
2023/10/15 00:07:47;;;;;;;3.58;1.20;;;;;;;;;;4958144;29;20205;-91
2023/10/15 00:10:16;;;;;;;5.75;1.70;;;;;;;;;;4957466;29;20260;-91
2023/10/15 00:12:47;;;;;;;2.55;1.35;;;;;;;;;;4957676;29;20313;-91
2023/10/15 00:15:18;;;;;;;2.10;1.48;;;;;;;;;;4957645;29;20288;-91
2023/10/15 00:17:47;;;;;;;2.33;1.48;;;;;;;;;;4958082;29;20208;-91
2023/10/15 00:20:17;;;;;;;3.67;1.95;;;;;;;;;;4957562;29;20237;-91
2023/10/15 00:22:45;;;;;;;2.25;1.45;;;;;;;;;;4956872;29;20232;-91
2023/10/15 00:25:15;;;;;;;1.77;1.20;;;;;;;;;;4957725;29;20205;-92
2023/10/15 00:27:43;;;;;;;3.25;1.02;;;;;;;;;;4957666;29;20209;-91
2023/10/15 00:30:19;;;;;;;3.90;1.35;;;;;;;;;;4957220;28;20225;-90
2023/10/15 00:32:47;;;;;;;3.92;1.50;;;;;;;;;;4957541;29;20238;-91
2023/10/15 00:35:19;;;;;;;1.67;1.50;;;;;;;;;;4957380;29;20215;-90
2023/10/15 00:37:54;;;;;;;2.78;1.10;;;;;;;;;;4957383;29;20212;-89
2023/10/15 00:40:22;;;;;;;2.92;1.38;;;;;;;;;;4957420;29;20267;-91
2023/10/15 00:42:50;;;;;;;3.05;1.48;;;;;;;;;;4957011;29;20319;-93
2023/10/15 00:45:19;;;;;;;1.75;1.33;;;;;;;;;;4957652;28;20589;-92
2023/10/15 00:47:53;;;;;;;3.95;1.92;;;;;;;;;;4957140;29;20203;-91
2023/10/15 00:50:22;;;;;;;1.33;1.15;;;;;;;;;;4957149;29;20316;-91
2023/10/15 00:52:50;;;;;;;5.32;1.35;;;;;;;;;;4940926;29;20324;-91
2023/10/15 00:55:20;;;;;;;2.47;1.30;;;;;;;;;;4937403;29;20287;-90
2023/10/15 00:57:48;;;;;;;2.65;1.60;;;;;;;;;;4937950;29;20205;-91
2023/10/15 01:02:59;;;;;;;2.72;1.70;;;;;;;;;;4937039;29;20220;-90
2023/10/15 01:05:33;;;;;;;3.30;1.70;;;;;;;;;;4937995;29;20205;-91
2023/10/15 01:08:03;;;;;;;1.95;1.40;;;;;;;;;;4937944;29;20205;-90
2023/10/15 01:10:36;;;;;;;3.17;1.40;;;;;;;;;;4937317;29;20233;-91
2023/10/15 01:13:15;;;;;;;1.65;1.05;;;;;;;;;;4937479;29;20261;-90
2023/10/15 01:15:43;;;;;;;2.97;1.73;;;;;;;;;;4937666;29;20268;-91
2023/10/15 01:18:12;;;;;;;1.35;1.23;;;;;;;;;;4937824;29;20248;-92
2023/10/15 01:20:43;;;;;;;1.73;1.08;;;;;;;;;;4951929;29;20213;-91
2023/10/15 01:23:28;;;;;;;4.13;1.80;;;;;;;;;;4937488;29;20333;-90
2023/10/15 01:25:59;;;;;;;2.67;1.08;;;;;;;;;;4937525;29;20216;-90
2023/10/15 01:28:36;;;;;;;3.28;1.83;;;;;;;;;;4937330;29;20210;-91
2023/10/15 01:31:05;;;;;;;1.55;1.13;;;;;;;;;;4937148;29;20232;-91
2023/10/15 01:33:45;;;;;;;3.40;1.50;;;;;;;;;;4936969;29;20228;-90
2023/10/15 01:36:17;;;;;;;1.88;1.20;;;;;;;;;;4940749;29;20206;-91
2023/10/15 01:38:45;;;;;;;4.47;1.25;;;;;;;;;;4937205;29;20292;-92
2023/10/15 01:41:16;;;;;;;3.97;1.40;;;;;;;;;;4937075;29;20260;-91
2023/10/15 01:43:46;;;;;;;2.22;1.30;;;;;;;;;;4936972;29;20225;-92
2023/10/15 01:46:25;;;;;;;2.20;1.30;;;;;;;;;;4936954;29;20212;-91
2023/10/15 01:48:52;;;;;;;2.05;1.20;;;;;;;;;;4942228;28;20265;-90
2023/10/15 01:51:20;;;;;;;3.53;1.77;;;;;;;;;;4954871;28;20657;-90
2023/10/15 01:53:48;;;;;;;4.63;1.40;;;;;;;;;;4955796;29;20609;-91
2023/10/15 01:56:20;;;;;;;1.25;1.08;;;;;;;;;;4936926;29;20273;-91
2023/10/15 01:58:48;;;;;;;1.20;1.05;;;;;;;;;;4936677;29;20224;-91
2023/10/15 02:01:31;;;;;;;1.35;0.90;;;;;;;;;;4936601;29;20256;-92
2023/10/15 02:03:59;;;;;;;6.40;2.05;;;;;;;;;;4936809;29;20602;-89
2023/10/15 02:06:27;;;;;;;4.25;1.58;;;;;;;;;;4935659;29;20201;-91
2023/10/15 02:08:56;;;;;;;1.90;1.08;;;;;;;;;;4941985;29;20206;-90
2023/10/15 02:11:25;;;;;;;3.45;1.40;;;;;;;;;;4960165;29;20221;-90
2023/10/15 02:13:55;;;;;;;3.17;1.20;;;;;;;;;;4961124;29;20177;-89
2023/10/15 02:16:29;;;;;;;3.38;1.23;;;;;;;;;;4960921;29;20210;-91
2023/10/15 02:18:59;;;;;;;2.33;0.80;;;;;;;;;;4941268;29;20300;-91
2023/10/15 02:21:31;;;;;;;1.77;1.17;;;;;;;;;;4957979;29;20686;-89
2023/10/15 02:24:07;;;;;;;1.02;0.90;;;;;;;;;;4956094;29;20209;-91
2023/10/15 02:26:37;;;;;;;1.92;1.00;;;;;;;;;;4955859;29;20201;-91
2023/10/15 02:29:07;;;;;;;2.33;1.45;;;;;;;;;;4955726;28;20284;-90
2023/10/15 02:31:41;;;;;;;1.10;1.00;;;;;;;;;;4955150;29;20605;-91
2023/10/15 02:34:14;;;;;;;2.67;1.33;;;;;;;;;;4955499;29;20256;-90
2023/10/15 02:36:43;;;;;;;1.00;0.90;;;;;;;;;;4955428;29;20205;-90
2023/10/15 02:39:10;;;;;;;1.85;1.00;;;;;;;;;;4955152;29;20585;-93
2023/10/15 02:41:42;;;;;;;0.98;0.85;;;;;;;;;;4958149;29;20288;-92
2023/10/15 02:44:13;;;;;;;3.00;1.40;;;;;;;;;;4954990;28;20264;-90
2023/10/15 02:46:47;;;;;;;3.35;1.70;;;;;;;;;;4955515;29;20215;-91
2023/10/15 02:49:16;;;;;;;1.77;1.30;;;;;;;;;;4955171;29;20213;-91
2023/10/15 02:51:47;;;;;;;3.78;1.95;;;;;;;;;;4954033;29;20228;-91
2023/10/15 02:54:27;;;;;;;1.63;1.15;;;;;;;;;;4954922;29;20240;-92
2023/10/15 02:56:57;;;;;;;0.95;0.82;;;;;;;;;;4954998;29;20219;-91
2023/10/15 02:59:24;;;;;;;3.33;1.40;;;;;;;;;;4955392;29;20232;-91
2023/10/15 03:01:56;;;;;;;1.85;1.42;;;;;;;;;;4954602;29;20260;-91
2023/10/15 03:04:33;;;;;;;4.25;1.30;;;;;;;;;;4954601;29;20244;-91
2023/10/15 03:07:17;;;;;;;3.83;1.27;;;;;;;;;;4955457;29;20204;-91
2023/10/15 03:09:48;;;;;;;3.05;2.75;;;;;;;;;;4955405;29;20610;-92
2023/10/15 03:12:18;;;;;;;1.58;1.23;;;;;;;;;;4943039;28;20319;-91
2023/10/15 03:14:46;;;;;;;1.13;1.02;;;;;;;;;;4941912;28;20691;-91
2023/10/15 03:17:24;;;;;;;0.80;0.80;;;;;;;;;;4941272;28;20309;-90
2023/10/15 03:19:54;;;;;;;1.42;0.93;;;;;;;;;;4942690;29;20212;-92
2023/10/15 03:22:23;;;;;;;5.18;1.90;;;;;;;;;;4942066;29;20228;-92
2023/10/15 03:24:53;;;;;;;1.63;1.20;;;;;;;;;;4941806;29;20205;-91
2023/10/15 03:27:26;;;;;;;1.10;1.00;;;;;;;;;;4941989;29;20331;-92
2023/10/15 03:29:56;;;;;;;1.63;1.52;;;;;;;;;;4941608;29;20295;-91
2023/10/15 03:32:30;;;;;;;1.35;1.00;;;;;;;;;;4941218;29;20659;-89
2023/10/15 03:35:05;;;;;;;2.30;1.10;;;;;;;;;;4941831;29;20602;-92
2023/10/15 03:37:38;;;;;;;2.78;1.20;;;;;;;;;;4941280;29;20240;-91
2023/10/15 03:40:12;;;;;;;1.27;1.17;;;;;;;;;;4941466;29;20212;-89
2023/10/15 03:42:41;;;;;;;2.08;1.45;;;;;;;;;;4941042;28;20231;-90
2023/10/15 03:45:16;;;;;;;3.95;1.70;;;;;;;;;;4942032;28;20207;-92
2023/10/15 03:47:46;;;;;;;2.35;1.27;;;;;;;;;;4942291;29;20216;-91
2023/10/15 03:50:15;;;;;;;2.17;1.63;;;;;;;;;;4941915;29;20267;-90
2023/10/15 03:52:44;;;;;;;2.65;1.73;;;;;;;;;;4940972;29;20740;-90
2023/10/15 03:55:12;;;;;;;2.00;1.30;;;;;;;;;;4941997;29;20212;-91
2023/10/15 03:57:41;;;;;;;1.98;1.30;;;;;;;;;;4941545;28;20926;-91
2023/10/15 04:00:16;;;;;;;2.10;1.58;;;;;;;;;;4942153;29;20213;-92
2023/10/15 04:03:00;;;;;;;2.88;1.67;;;;;;;;;;4941305;29;20228;-91
2023/10/15 04:05:32;;;;;;;2.15;1.70;;;;;;;;;;4941528;29;20680;-92
2023/10/15 04:08:00;;;;;;;5.25;1.63;;;;;;;;;;4940956;29;20240;-92
2023/10/15 04:10:33;;;;;;;1.77;1.50;;;;;;;;;;4941479;29;20296;-91
2023/10/15 04:13:03;;;;;;;2.15;1.50;;;;;;;;;;4941308;28;20320;-91
2023/10/15 04:15:31;;;;;;;14.68;3.33;;;;;;;;;;4941852;29;20209;-90
2023/10/15 04:17:59;;;;;;;2.00;1.63;;;;;;;;;;4941772;29;20224;-91
2023/10/15 04:20:33;;;;;;;2.80;1.88;;;;;;;;;;4941887;29;20655;-91
2023/10/15 04:23:00;;;;;;;1.70;1.33;;;;;;;;;;4940980;29;20241;-91
2023/10/15 04:25:33;;;;;;;1.17;1.08;;;;;;;;;;4941469;29;20231;-92
2023/10/15 04:28:10;;;;;;;1.67;1.58;;;;;;;;;;4941743;29;20216;-91
2023/10/15 04:30:39;;;;;;;2.53;1.42;;;;;;;;;;4944870;29;20220;-92
2023/10/15 04:33:10;;;;;;;1.17;1.17;;;;;;;;;;4944203;29;20307;-90
2023/10/15 04:35:38;;;;;;;2.42;1.45;;;;;;;;;;4945678;29;20216;-90
2023/10/15 04:38:07;;;;;;;4.68;1.60;;;;;;;;;;4945245;29;20217;-90
2023/10/15 04:40:47;;;;;;;1.50;1.40;;;;;;;;;;4944440;29;20205;-90
2023/10/15 04:43:18;;;;;;;2.47;1.30;;;;;;;;;;4944888;28;21178;-91
2023/10/15 04:45:46;;;;;;;2.28;1.30;;;;;;;;;;4945941;28;20202;-90
2023/10/15 04:48:14;;;;;;;1.60;1.50;;;;;;;;;;4945536;29;20320;-90
2023/10/15 04:50:43;;;;;;;4.30;2.10;;;;;;;;;;4945162;29;20213;-90
2023/10/15 04:53:15;;;;;;;2.72;1.75;;;;;;;;;;4944116;29;20236;-91
2023/10/15 04:55:43;;;;;;;1.88;1.67;;;;;;;;;;4944775;29;20615;-92
2023/10/15 04:58:11;;;;;;;2.00;1.58;;;;;;;;;;4945009;29;20232;-90
2023/10/15 05:00:42;;;;;;;3.15;1.80;;;;;;;;;;4946665;29;20240;-92
2023/10/15 05:03:11;;;;;;;2.85;1.83;;;;;;;;;;4946791;29;20232;-92
2023/10/15 05:05:42;;;;;;;2.58;1.83;;;;;;;;;;4947250;28;20216;-91
2023/10/15 05:08:11;;;;;;;2.58;1.70;;;;;;;;;;4945928;29;20208;-92
2023/10/15 05:10:44;;;;;;;3.10;1.92;;;;;;;;;;4945522;28;20213;-91
2023/10/15 05:13:12;;;;;;;2.50;1.90;;;;;;;;;;4956308;28;20239;-90
2023/10/15 05:15:42;;;;;;;5.97;1.92;;;;;;;;;;4957119;28;20209;-92
2023/10/15 05:18:10;;;;;;;2.38;1.75;;;;;;;;;;4957461;28;20201;-92
2023/10/15 05:20:37;;;;;;;2.50;1.60;;;;;;;;;;4957571;29;20285;-91
2023/10/15 05:23:05;;;;;;;2.65;1.65;;;;;;;;;;4956873;29;20311;-92
2023/10/15 05:25:33;;;;;;;1.90;1.40;;;;;;;;;;4957027;29;20232;-91
2023/10/15 05:28:00;;;;;;;2.13;1.67;;;;;;;;;;4961692;29;20686;-92
2023/10/15 05:30:28;;;;;;;2.60;1.55;;;;;;;;;;4955428;28;20204;-92
2023/10/15 05:33:00;;;;;;;4.63;2.80;;;;;;;;;;4956041;29;20229;-91
2023/10/15 05:35:28;;;;;;;2.63;1.38;;;;;;;;;;4956393;28;20663;-91
2023/10/15 05:37:56;;;;;;;3.10;2.08;;;;;;;;;;4956457;29;20647;-91
2023/10/15 05:40:24;;;;;;;2.20;1.60;;;;;;;;;;4956542;28;20287;-92
2023/10/15 05:42:53;;;;;;;2.30;1.90;;;;;;;;;;4955950;29;20787;-91
2023/10/15 05:45:20;;;;;;;4.65;1.77;;;;;;;;;;4956760;29;20215;-92
2023/10/15 05:47:48;;;;;;;2.55;2.10;;;;;;;;;;4956003;29;20202;-90
2023/10/15 05:50:17;;;;;;;3.63;2.78;;;;;;;;;;4956274;29;20617;-90
2023/10/15 05:52:45;;;;;;;4.82;1.95;;;;;;;;;;4955981;28;20233;-92
2023/10/15 05:55:13;;;;;;;2.85;1.70;;;;;;;;;;4955987;29;20205;-92
2023/10/15 05:57:41;;;;;;;2.47;1.55;;;;;;;;;;4955920;28;20204;-90
2023/10/15 06:00:18;;;;;;;2.90;1.73;;;;;;;;;;4955810;29;20233;-91
2023/10/15 06:02:46;;;;;;;1.67;1.33;;;;;;;;;;4955868;29;20303;-91
2023/10/15 06:05:15;;;;;;;3.30;1.85;;;;;;;;;;4956355;28;20279;-90
2023/10/15 06:07:43;;;;;;;3.88;2.00;;;;;;;;;;4956594;28;20291;-90
2023/10/15 06:10:12;;;;;;;2.03;1.60;;;;;;;;;;4956347;29;20193;-92
2023/10/15 06:12:39;;;;;;;2.45;1.92;;;;;;;;;;4955532;29;20237;-91
2023/10/15 06:15:09;;;;;;;2.42;2.05;;;;;;;;;;4955969;29;20605;-92
2023/10/15 06:17:37;;;;;;;1.98;1.80;;;;;;;;;;4955744;28;20256;-89
2023/10/15 06:20:13;;;;;;;1.50;1.40;;;;;;;;;;4956362;29;20211;-90
2023/10/15 06:22:42;;;;;;;2.55;1.98;;;;;;;;;;4955657;28;20221;-91
2023/10/15 06:25:11;;;;;;;2.55;2.35;;;;;;;;;;4955751;29;20737;-91
2023/10/15 06:27:40;;;;;;;4.90;4.40;;;;;;;;;;4958017;29;20229;-91
2023/10/15 06:30:14;;;;;;;2.05;1.90;;;;;;;;;;4957478;29;20212;-91
2023/10/15 06:32:43;;;;;;;1.50;1.40;;;;;;;;;;4957342;29;20231;-91
2023/10/15 06:35:14;;;;;;;3.05;2.10;;;;;;;;;;4958450;29;20215;-91
2023/10/15 06:37:46;;;;;;;4.22;2.53;;;;;;;;;;4957759;29;20634;-92
2023/10/15 06:40:17;;;;;;;3.70;1.90;;;;;;;;;;4956393;29;20204;-91
2023/10/15 06:42:46;;;;;;;1.90;1.80;;;;;;;;;;4957703;29;20233;-91
2023/10/15 06:45:19;;;;;;;4.18;2.60;;;;;;;;;;4962322;28;20228;-90
2023/10/15 06:47:47;;;;;;;3.92;2.72;;;;;;;;;;4979845;28;20220;-90
2023/10/15 06:50:16;;;;;;;6.60;5.93;;;;;;;;;;4979840;28;20209;-90
2023/10/15 06:52:45;;;;;;;7.30;5.07;;;;;;;;;;4978895;28;20217;-89
2023/10/15 06:55:13;;;;;;;5.05;3.72;;;;;;;;;;4979655;28;20191;-91
2023/10/15 06:57:41;;;;;;;3.38;2.80;;;;;;;;;;4979544;28;20197;-88
2023/10/15 07:00:11;;;;;;;3.65;2.30;;;;;;;;;;4978368;28;20693;-90
2023/10/15 07:02:39;;;;;;;2.40;2.20;;;;;;;;;;4969795;29;20232;-91
2023/10/15 07:05:07;;;;;;;2.30;2.10;;;;;;;;;;4966445;29;20213;-91
2023/10/15 07:07:35;;;;;;;4.10;3.10;;;;;;;;;;4961613;29;20248;-91
2023/10/15 07:10:05;;;;;;;2.80;1.60;;;;;;;;;;4959808;29;20204;-91
2023/10/15 07:12:33;;;;;;;3.22;1.70;;;;;;;;;;4957885;29;20322;-91
2023/10/15 07:15:01;;;;;;;4.38;2.65;;;;;;;;;;4958637;29;20209;-89
2023/10/15 07:17:30;;;;;;;4.82;2.47;;;;;;;;;;4957767;29;20204;-91
2023/10/15 07:19:58;;;;;;;2.53;2.05;;;;;;;;;;4957644;28;20556;-91
2023/10/15 07:22:27;;;;;;;2.00;1.73;;;;;;;;;;4955435;29;20585;-89
2023/10/15 07:24:54;;;;;;;4.25;2.75;;;;;;;;;;4955858;29;20575;-91
2023/10/15 07:27:23;;;;;;;2.50;2.10;;;;;;;;;;4955402;29;20726;-90
2023/10/15 07:29:51;;;;;;;4.25;2.55;;;;;;;;;;4947872;29;20301;-90
2023/10/15 07:32:19;;;;;;;6.03;3.05;;;;;;;;;;4935749;29;20715;-92
2023/10/15 07:34:46;;;;;;;5.20;2.72;;;;;;;;;;4936942;29;20297;-90
2023/10/15 07:37:14;;;;;;;4.07;2.63;;;;;;;;;;4943355;29;20229;-91
2023/10/15 07:39:42;;;;;;;3.08;2.13;;;;;;;;;;4953450;29;20189;-91
2023/10/15 07:42:09;;;;;;;3.08;2.08;;;;;;;;;;4954169;29;20250;-91
2023/10/15 07:44:38;;;;;;;6.10;2.55;;;;;;;;;;4954854;29;20236;-90
2023/10/15 07:47:06;;;;;;;6.07;3.22;;;;;;;;;;4957085;29;20232;-90
2023/10/15 07:49:34;;;;;;;1.95;1.85;;;;;;;;;;4965718;28;20204;-89
2023/10/15 07:52:03;;;;;;;4.40;2.08;;;;;;;;;;4977603;28;20264;-89
2023/10/15 07:54:32;;;;;;;2.72;2.03;;;;;;;;;;4978230;28;20273;-89
2023/10/15 07:56:59;;;;;;;1.65;1.55;;;;;;;;;;4978501;28;20221;-87
2023/10/15 07:59:27;;;;;;;4.35;2.20;;;;;;;;;;4973112;28;20189;-88
2023/10/15 08:01:56;;;;;;;2.17;2.00;;;;;;;;;;4978247;28;20209;-89
2023/10/15 08:04:23;;;;;;;3.72;1.92;;;;;;;;;;4979716;28;20228;-88
2023/10/15 08:06:52;;;;;;;2.45;1.92;;;;;;;;;;4982545;28;20192;-88
2023/10/15 08:09:19;;;;;;;2.85;2.10;;;;;;;;;;4982378;28;20193;-88
2023/10/15 08:11:47;;;;;;;1.77;1.67;;;;;;;;;;4982256;28;20213;-91
2023/10/15 08:14:15;;;;;;;2.58;1.88;;;;;;;;;;4982344;28;20240;-89
2023/10/15 08:16:43;;;;;;;8.77;1.80;;;;;;;;;;4982586;28;20188;-87
2023/10/15 08:19:12;;;;;;;2.75;1.70;;;;;;;;;;4982135;28;20220;-90
2023/10/15 08:21:39;;;;;;;2.45;1.80;;;;;;;;;;4981944;28;20225;-88
2023/10/15 08:24:08;;;;;;;2.67;2.13;;;;;;;;;;4982250;28;20189;-88
2023/10/15 08:26:37;;;;;;;2.55;2.10;;;;;;;;;;4981620;28;20674;-90
2023/10/15 08:29:05;;;;;;;2.42;2.08;;;;;;;;;;4981401;28;20197;-90
2023/10/15 08:31:32;;;;;;;2.10;2.00;;;;;;;;;;4981571;28;20193;-88
2023/10/15 08:34:00;;;;;;;2.65;2.03;;;;;;;;;;4981800;28;20233;-89
2023/10/15 08:36:29;;;;;;;2.03;1.83;;;;;;;;;;4981781;28;20209;-89
2023/10/15 08:38:56;;;;;;;2.47;2.28;;;;;;;;;;4981987;28;20224;-88
2023/10/15 08:41:26;;;;;;;2.30;2.10;;;;;;;;;;4981471;28;20200;-89
2023/10/15 08:43:54;;;;;;;2.05;1.85;;;;;;;;;;4982001;28;20434;-89
2023/10/15 08:46:23;;;;;;;2.45;1.88;;;;;;;;;;4981839;28;20215;-88
2023/10/15 08:48:51;;;;;;;1.45;1.35;;;;;;;;;;4981757;28;20195;-88
2023/10/15 08:51:21;;;;;;;1.88;1.73;;;;;;;;;;4981530;28;20215;-88
2023/10/15 08:53:51;;;;;;;2.60;2.10;;;;;;;;;;4981536;28;20280;-89
2023/10/15 08:56:21;;;;;;;2.22;2.00;;;;;;;;;;4981594;28;20205;-90
2023/10/15 08:58:54;;;;;;;1.67;1.58;;;;;;;;;;4981619;28;20185;-88
2023/10/15 09:01:22;;;;;;;1.60;1.50;;;;;;;;;;4980904;28;20261;-89
2023/10/15 09:03:52;;;;;;;3.28;2.60;;;;;;;;;;4963180;29;20312;-89
2023/10/15 09:06:20;;;;;;;1.88;1.40;;;;;;;;;;4958488;29;20713;-90
2023/10/15 09:08:50;;;;;;;2.97;2.03;;;;;;;;;;4957424;29;20209;-90
2023/10/15 09:11:19;;;;;;;4.88;1.60;;;;;;;;;;4957528;29;20283;-87
2023/10/15 09:13:52;;;;;;;1.92;1.73;;;;;;;;;;4957617;29;20236;-90
2023/10/15 09:16:22;;;;;;;1.92;1.67;;;;;;;;;;4958875;28;20670;-90
2023/10/15 09:18:52;;;;;;;2.88;1.40;;;;;;;;;;4958875;29;20292;-90
2023/10/15 09:21:24;;;;;;;1.80;1.33;;;;;;;;;;4957081;29;20297;-90
2023/10/15 09:23:53;;;;;;;1.77;1.50;;;;;;;;;;4957185;29;20208;-91
2023/10/15 09:26:21;;;;;;;2.08;1.50;;;;;;;;;;4956457;29;20284;-89
2023/10/15 09:28:51;;;;;;;1.52;1.42;;;;;;;;;;4956478;29;20517;-90
2023/10/15 09:31:20;;;;;;;7.68;2.83;;;;;;;;;;4957149;29;20299;-89
2023/10/15 09:33:51;;;;;;;2.65;1.58;;;;;;;;;;4958010;29;20221;-90
2023/10/15 09:36:18;;;;;;;2.35;1.70;;;;;;;;;;4957849;29;20201;-90
2023/10/15 09:38:47;;;;;;;1.60;1.27;;;;;;;;;;4956805;29;20284;-91
2023/10/15 09:41:16;;;;;;;2.55;1.50;;;;;;;;;;4956221;29;20618;-90
2023/10/15 09:43:44;;;;;;;3.60;2.25;;;;;;;;;;4956200;29;20225;-88
2023/10/15 09:46:12;;;;;;;2.35;1.73;;;;;;;;;;4956279;29;20576;-90
2023/10/15 09:48:40;;;;;;;1.80;1.35;;;;;;;;;;4956209;29;20741;-91
2023/10/15 09:51:08;;;;;;;1.70;1.45;;;;;;;;;;4956195;29;20597;-90
2023/10/15 09:53:36;;;;;;;4.25;2.05;;;;;;;;;;4955924;29;20230;-90
2023/10/15 09:56:08;;;;;;;2.78;1.52;;;;;;;;;;4956042;29;20308;-91
2023/10/15 09:58:38;;;;;;;1.90;1.10;;;;;;;;;;4956247;29;20209;-90
2023/10/15 10:01:09;;;;;;;0.95;0.95;;;;;;;;;;4953701;29;20204;-90
2023/10/15 10:04:40;;;;;;;1.17;0.95;;;;;;;;;;4955871;29;20667;-90
2023/10/15 10:07:53;;;;;;;1.90;1.42;;;;;;;;;;4915886;29;20214;-89
2023/10/15 10:10:54;;;;;;;1.20;1.00;;;;;;;;;;4841249;29;20291;-90
2023/10/15 10:13:43;;;;;;;1.52;1.35;;;;;;;;;;4955282;29;20221;-90
2023/10/15 10:16:20;;;;;;;1.77;1.55;;;;;;;;;;4955410;29;20717;-90
2023/10/15 10:18:48;;;;;;;3.17;1.20;;;;;;;;;;4955528;29;20587;-90
2023/10/15 10:21:17;;;;;;;1.65;1.10;;;;;;;;;;4956111;29;20295;-90
2023/10/15 10:23:46;;;;;;;1.00;0.80;;;;;;;;;;4955344;28;20697;-90
2023/10/15 10:26:14;;;;;;;1.10;0.85;;;;;;;;;;4955908;28;20208;-90
2023/10/15 10:28:44;;;;;;;0.98;0.98;;;;;;;;;;4956366;29;20592;-90
2023/10/15 10:31:13;;;;;;;1.05;0.95;;;;;;;;;;4956853;29;20595;-90
2023/10/15 10:33:55;;;;;;;1.17;1.10;;;;;;;;;;4955791;29;20253;-89
2023/10/15 10:36:26;;;;;;;1.75;1.13;;;;;;;;;;4956541;29;20235;-88
2023/10/15 10:39:11;;;;;;;1.80;1.40;;;;;;;;;;4955399;29;20737;-90
2023/10/15 10:41:40;;;;;;;1.48;1.20;;;;;;;;;;4955264;29;20209;-89
2023/10/15 10:44:31;;;;;;;1.77;1.60;;;;;;;;;;4955481;29;20292;-88
2023/10/15 10:46:59;;;;;;;4.80;2.33;;;;;;;;;;4955210;29;20594;-89
2023/10/15 10:49:34;;;;;;;2.60;1.67;;;;;;;;;;4955007;29;20200;-89
2023/10/15 10:52:14;;;;;;;7.90;2.38;;;;;;;;;;4954957;29;20229;-89
2023/10/15 10:54:42;;;;;;;3.65;2.42;;;;;;;;;;4955392;29;20247;-89
2023/10/15 10:57:09;;;;;;;3.30;1.88;;;;;;;;;;4954777;29;20292;-89
2023/10/15 10:59:41;;;;;;;2.08;1.52;;;;;;;;;;4955368;28;20613;-90
2023/10/15 11:02:13;;;;;;;2.92;2.42;;;;;;;;;;4954304;29;20236;-90
2023/10/15 11:04:41;;;;;;;2.25;1.75;;;;;;;;;;4955040;29;20208;-88
2023/10/15 11:07:10;;;;;;;2.25;1.85;;;;;;;;;;4954449;29;20215;-89
2023/10/15 11:09:38;;;;;;;2.13;1.80;;;;;;;;;;4954789;29;20193;-89
2023/10/15 11:12:09;;;;;;;1.35;1.20;;;;;;;;;;4954278;29;20774;-89
2023/10/15 11:14:39;;;;;;;1.55;1.25;;;;;;;;;;4954473;29;20232;-89
2023/10/15 11:17:08;;;;;;;0.98;0.98;;;;;;;;;;4954660;29;20197;-88
2023/10/15 11:19:37;;;;;;;2.88;1.20;;;;;;;;;;4954540;29;20204;-90
2023/10/15 11:22:05;;;;;;;0.95;0.95;;;;;;;;;;4953843;29;20308;-88
2023/10/15 11:24:32;;;;;;;1.73;1.25;;;;;;;;;;4954702;29;20255;-89
2023/10/15 11:27:00;;;;;;;1.25;1.20;;;;;;;;;;4954313;29;20288;-89
2023/10/15 11:29:28;;;;;;;1.05;1.05;;;;;;;;;;4954704;29;20287;-88
2023/10/15 11:31:59;;;;;;;1.30;1.20;;;;;;;;;;4954053;29;20609;-89
2023/10/15 11:34:28;;;;;;;0.82;0.82;;;;;;;;;;4954647;28;20233;-90
2023/10/15 11:36:57;;;;;;;1.13;1.02;;;;;;;;;;4954124;29;20641;-89
2023/10/15 11:39:37;;;;;;;1.27;1.17;;;;;;;;;;4958621;28;20741;-87
2023/10/15 11:42:05;;;;;;;1.70;1.60;;;;;;;;;;4960490;29;20311;-88
2023/10/15 11:44:33;;;;;;;1.08;1.05;;;;;;;;;;4960276;29;20217;-88
2023/10/15 11:47:08;;;;;;;3.70;1.48;;;;;;;;;;4960412;28;20288;-89
2023/10/15 11:49:38;;;;;;;1.38;1.20;;;;;;;;;;4960886;28;20212;-89
2023/10/15 11:52:06;;;;;;;1.50;1.30;;;;;;;;;;4960580;28;20225;-89
2023/10/15 11:54:35;;;;;;;1.70;1.55;;;;;;;;;;4960935;28;20265;-87
2023/10/15 11:57:04;;;;;;;1.33;1.23;;;;;;;;;;4967149;29;20225;-87
2023/10/15 11:59:32;;;;;;;3.13;1.35;;;;;;;;;;4956569;29;20215;-87
2023/10/15 12:02:01;;;;;;;1.27;1.10;;;;;;;;;;4941132;29;20304;-88
2023/10/15 12:04:29;;;;;;;0.88;0.88;;;;;;;;;;4941510;29;20229;-89
2023/10/15 12:06:57;;;;;;;3.78;1.55;;;;;;;;;;4941291;29;20288;-89
2023/10/15 12:09:26;;;;;;;1.50;1.40;;;;;;;;;;4941479;29;20293;-90
2023/10/15 12:11:53;;;;;;;1.45;1.35;;;;;;;;;;4941393;29;20221;-88
2023/10/15 12:14:21;;;;;;;4.30;1.52;;;;;;;;;;4941931;29;20301;-89
2023/10/15 12:16:48;;;;;;;1.58;1.30;;;;;;;;;;4941564;29;20711;-90
2023/10/15 12:19:18;;;;;;;2.15;1.20;;;;;;;;;;4941585;29;20734;-90
2023/10/15 12:21:45;;;;;;;2.28;1.65;;;;;;;;;;4941253;29;20206;-90
2023/10/15 12:24:13;;;;;;;1.67;1.58;;;;;;;;;;4941468;29;20229;-88
2023/10/15 12:26:43;;;;;;;1.40;1.30;;;;;;;;;;4941430;29;20201;-90
2023/10/15 12:29:13;;;;;;;1.70;1.30;;;;;;;;;;4945299;29;20730;-89
2023/10/15 12:31:43;;;;;;;2.70;1.85;;;;;;;;;;4960018;28;20211;-89
2023/10/15 12:34:11;;;;;;;1.15;1.15;;;;;;;;;;4960328;29;20205;-90
2023/10/15 12:36:41;;;;;;;1.42;1.33;;;;;;;;;;4959975;28;20229;-88
2023/10/15 12:39:09;;;;;;;1.73;1.38;;;;;;;;;;4960419;29;20197;-89
2023/10/15 12:41:38;;;;;;;1.13;1.13;;;;;;;;;;4959952;29;20201;-90
2023/10/15 12:44:11;;;;;;;1.15;1.15;;;;;;;;;;4960116;29;20205;-89
2023/10/15 12:46:40;;;;;;;2.10;1.60;;;;;;;;;;4960140;28;20197;-90
2023/10/15 12:49:08;;;;;;;1.73;1.27;;;;;;;;;;4960110;28;20204;-90
2023/10/15 12:51:36;;;;;;;1.55;1.10;;;;;;;;;;4955738;28;20193;-88
2023/10/15 12:54:05;;;;;;;1.45;1.05;;;;;;;;;;4956831;29;20264;-89
2023/10/15 12:56:33;;;;;;;1.20;1.02;;;;;;;;;;4956535;29;20328;-89
2023/10/15 12:59:01;;;;;;;1.20;1.10;;;;;;;;;;4956637;29;20232;-88
2023/10/15 13:01:28;;;;;;;1.33;1.00;;;;;;;;;;4959062;29;20197;-89
2023/10/15 13:03:58;;;;;;;1.33;1.00;;;;;;;;;;4958052;29;20205;-90
2023/10/15 13:06:26;;;;;;;1.17;0.80;;;;;;;;;;4960741;29;20197;-89
2023/10/15 13:08:53;;;;;;;2.40;1.35;;;;;;;;;;4956579;29;20237;-90
2023/10/15 13:11:22;;;;;;;1.05;0.85;;;;;;;;;;4956402;29;20642;-91
2023/10/15 13:13:50;;;;;;;0.75;0.73;;;;;;;;;;4956407;29;20710;-89
2023/10/15 13:16:18;;;;;;;1.13;1.00;;;;;;;;;;4956196;28;20292;-89
2023/10/15 13:18:46;;;;;;;0.77;0.77;;;;;;;;;;4956513;29;20235;-89
2023/10/15 13:21:14;;;;;;;0.60;0.60;;;;;;;;;;4956010;29;20216;-89
2023/10/15 13:23:41;;;;;;;2.80;0.85;;;;;;;;;;4955753;29;20232;-89
2023/10/15 13:26:09;;;;;;;0.70;0.70;;;;;;;;;;4956375;28;20296;-89
2023/10/15 13:28:39;;;;;;;2.00;0.75;;;;;;;;;;4960727;29;20280;-90
2023/10/15 13:31:07;;;;;;;2.35;1.00;;;;;;;;;;4952791;29;20674;-89
2023/10/15 13:33:36;;;;;;;1.20;1.10;;;;;;;;;;4955904;29;20225;-88
2023/10/15 13:36:04;;;;;;;2.67;1.52;;;;;;;;;;4956242;29;20205;-88
2023/10/15 13:38:33;;;;;;;1.95;1.23;;;;;;;;;;4956071;29;20205;-88
2023/10/15 13:41:01;;;;;;;1.95;1.00;;;;;;;;;;4955827;29;20288;-89
2023/10/15 13:43:29;;;;;;;2.38;0.93;;;;;;;;;;4956032;29;20224;-88
2023/10/15 13:45:58;;;;;;;3.67;1.10;;;;;;;;;;4955841;29;20490;-88
2023/10/15 13:48:25;;;;;;;1.77;1.17;;;;;;;;;;4955656;28;20209;-88
2023/10/15 13:50:53;;;;;;;1.02;0.90;;;;;;;;;;4952317;28;20225;-88
2023/10/15 13:53:20;;;;;;;1.02;1.00;;;;;;;;;;4955030;29;20702;-89
2023/10/15 13:55:48;;;;;;;0.70;0.70;;;;;;;;;;4955714;29;20209;-89
2023/10/15 13:58:15;;;;;;;1.38;1.08;;;;;;;;;;4956418;29;20319;-90
2023/10/15 14:00:45;;;;;;;1.90;0.63;;;;;;;;;;4957014;29;20236;-89
2023/10/15 14:03:15;;;;;;;1.27;1.17;;;;;;;;;;4955344;29;20316;-89
2023/10/15 14:05:43;;;;;;;0.52;0.52;;;;;;;;;;4956958;29;20204;-89
2023/10/15 14:08:10;;;;;;;0.90;0.73;;;;;;;;;;4956469;29;20256;-90
2023/10/15 14:10:39;;;;;;;0.80;0.55;;;;;;;;;;4956298;29;20232;-88
2023/10/15 14:13:07;;;;;;;0.82;0.63;;;;;;;;;;4956251;29;20514;-89
2023/10/15 14:15:34;;;;;;;0.60;0.60;;;;;;;;;;4957107;29;20232;-90
2023/10/15 14:18:02;;;;;;;1.55;1.00;;;;;;;;;;4956014;29;20227;-89
2023/10/15 14:20:32;;;;;;;0.90;0.90;;;;;;;;;;4956266;29;20259;-88
2023/10/15 14:23:00;;;;;;;1.90;0.73;;;;;;;;;;4955969;28;20249;-89
2023/10/15 14:25:29;;;;;;;1.65;0.93;;;;;;;;;;4957126;28;20205;-89
2023/10/15 14:27:57;;;;;;;0.68;0.68;;;;;;;;;;4955935;29;20241;-90
2023/10/15 14:30:24;;;;;;;2.97;1.67;;;;;;;;;;4955763;29;20200;-90
2023/10/15 14:32:52;;;;;;;0.77;0.75;;;;;;;;;;4955074;29;20308;-89
2023/10/15 14:35:21;;;;;;;3.38;1.48;;;;;;;;;;4955511;29;20201;-89
2023/10/15 14:37:50;;;;;;;1.55;0.90;;;;;;;;;;4954656;29;20217;-89
2023/10/15 14:40:17;;;;;;;0.70;0.60;;;;;;;;;;4955059;28;20228;-89
2023/10/15 14:42:45;;;;;;;3.05;1.27;;;;;;;;;;4954393;29;20221;-90
2023/10/15 14:45:16;;;;;;;1.50;1.25;;;;;;;;;;4955289;29;20207;-90
2023/10/15 14:47:43;;;;;;;1.40;0.90;;;;;;;;;;4955100;29;20223;-90
2023/10/15 14:50:12;;;;;;;1.00;0.90;;;;;;;;;;4954607;29;20288;-89
2023/10/15 14:52:40;;;;;;;2.95;1.15;;;;;;;;;;4955265;29;20229;-89
2023/10/15 14:55:09;;;;;;;1.50;1.40;;;;;;;;;;4956952;29;20232;-90
2023/10/15 14:57:38;;;;;;;0.70;0.70;;;;;;;;;;4955535;28;20228;-90
2023/10/15 15:00:08;;;;;;;1.05;0.88;;;;;;;;;;4954755;29;20201;-91
2023/10/15 15:02:36;;;;;;;1.17;1.08;;;;;;;;;;4954559;29;20296;-90